Carrigaline, Ireland
Current Conditions -  °F | °C
As of 8:30 AM on Sunday 21 Dec 2014 (Local Time) from EICK Reporting Station
Drizzle Drizzle  
Wind Chill: 50°   Ceiling: 300
Heat Index: 50°   Visibility: 6mi
Dew Point: 50°   Wind: 12mph
Humidity: 100%   Direction: 220°SW
Pressure: 30.27"   Gusts: NA
Location:  51.81°N, 8.39°W
Report Text: EICK 210830Z 22010KT 190V250 9999 -DZ BKN003 BKN005 10/10 Q1025 TEMPO 3000
Loading
Personal Weather Stations






























Interactive Weather Map New forecast layout! Learn more

10-Day Weather Forecast

Advertisements
Track Severe Weather on mobile